Time;durP1;ratioP1;P1;durP2;ratioP2;P2;SDS_P1;SDS_P2;PMS_P1;PMS_P2;Temp;Humidity;BMP_temperature;BMP_pressure;BME280_temperature;BME280_humidity;BME280_pressure;Samples;Min_cycle;Max_cycle;Signal;HPM_P1;HPM_P2
2021/08/13 00:02:04;;;;;;;11.35;5.25;;;;;;;26.16;48.27;101632.41;5013466;28;20032;-61
2021/08/13 00:04:30;;;;;;;9.43;4.60;;;;;;;26.16;48.46;101638.72;5014895;28;20055;-61
2021/08/13 00:06:55;;;;;;;11.70;4.65;;;;;;;26.14;47.98;101634.47;5017151;28;20021;-61
2021/08/13 00:09:22;;;;;;;9.52;4.45;;;;;;;26.14;48.34;101645.47;5016336;28;20014;-61
2021/08/13 00:11:47;;;;;;;11.52;5.07;;;;;;;26.09;47.91;101643.34;5017130;28;20018;-61
2021/08/13 00:14:13;;;;;;;9.65;4.78;;;;;;;26.04;48.02;101640.38;5017206;28;20095;-61
2021/08/13 00:16:38;;;;;;;6.05;4.47;;;;;;;25.99;48.29;101643.75;4999468;28;20069;-61
2021/08/13 00:19:04;;;;;;;7.35;4.93;;;;;;;25.99;48.30;101654.72;5017335;28;20387;-60
2021/08/13 00:21:30;;;;;;;9.18;4.70;;;;;;;25.93;48.23;101649.25;5016875;28;20467;-61
2021/08/13 00:23:56;;;;;;;10.25;4.88;;;;;;;25.91;48.42;101648.59;5016063;28;20105;-61
2021/08/13 00:26:21;;;;;;;8.68;5.13;;;;;;;25.87;48.08;101650.94;5017087;28;20490;-61
2021/08/13 00:28:47;;;;;;;8.35;5.07;;;;;;;25.86;48.21;101657.47;5015667;28;20053;-61
2021/08/13 00:31:12;;;;;;;10.38;5.07;;;;;;;25.84;48.21;101648.59;5017969;28;20025;-61
2021/08/13 00:33:37;;;;;;;9.38;5.47;;;;;;;25.81;48.27;101646.28;5017486;28;20026;-61
2021/08/13 00:36:03;;;;;;;9.07;5.63;;;;;;;25.81;48.61;101657.25;5016013;28;20109;-61
2021/08/13 00:38:28;;;;;;;17.67;6.07;;;;;;;25.82;48.54;101658.09;5015653;28;20033;-61
2021/08/13 00:40:54;;;;;;;14.75;6.03;;;;;;;25.79;48.93;101656.63;5017262;28;20022;-60
2021/08/13 00:43:19;;;;;;;16.38;5.90;;;;;;;25.79;48.75;101662.13;5017069;28;20029;-61
2021/08/13 00:45:44;;;;;;;9.27;4.97;;;;;;;25.77;48.58;101655.97;5015627;28;20022;-61
2021/08/13 00:48:10;;;;;;;11.35;5.50;;;;;;;25.81;48.67;101668.25;5016940;28;20475;-61
2021/08/13 00:50:36;;;;;;;10.15;5.40;;;;;;;25.83;48.97;101668.00;5015742;28;20032;-61
2021/08/13 00:53:02;;;;;;;12.63;5.20;;;;;;;25.85;48.73;101666.75;5015284;28;20034;-61
2021/08/13 00:55:27;;;;;;;11.32;5.03;;;;;;;25.87;49.06;101666.56;5015981;28;20109;-61
2021/08/13 00:57:54;;;;;;;12.10;6.13;;;;;;;25.87;49.21;101667.41;5016123;28;20479;-61
2021/08/13 01:00:19;;;;;;;8.27;5.10;;;;;;;25.89;49.25;101665.28;5015485;28;20037;-61
2021/08/13 01:02:44;;;;;;;9.00;4.90;;;;;;;25.89;49.25;101658.94;5016653;28;20026;-61
2021/08/13 01:05:10;;;;;;;6.53;4.55;;;;;;;25.90;49.61;101663.41;5015412;28;20112;-61
2021/08/13 01:07:36;;;;;;;7.00;4.22;;;;;;;25.94;49.62;101664.66;5015362;28;20026;-61
2021/08/13 01:10:02;;;;;;;11.07;4.97;;;;;;;25.94;49.44;101660.00;5015160;28;20061;-61
2021/08/13 01:12:34;;;;;;;10.85;5.10;;;;;;;25.98;49.69;101666.78;5016798;28;20033;-61
2021/08/13 01:15:05;;;;;;;11.37;5.23;;;;;;;26.00;49.21;101663.81;5016689;28;20030;-60
2021/08/13 01:18:08;;;;;;;11.20;6.40;;;;;;;25.98;49.80;101658.56;5015011;28;20026;-60
2021/08/13 01:20:37;;;;;;;11.25;6.05;;;;;;;25.99;49.43;101665.72;4998536;28;20094;-61
2021/08/13 01:23:20;;;;;;;11.40;6.53;;;;;;;25.96;49.33;101666.13;5015127;28;20053;-62
2021/08/13 01:25:51;;;;;;;11.77;5.85;;;;;;;26.01;48.96;101682.84;5014751;28;20034;-60
2021/08/13 01:28:28;;;;;;;8.75;4.78;;;;;;;26.01;49.61;101671.88;5014524;28;20072;-60
2021/08/13 01:30:53;;;;;;;13.05;5.75;;;;;;;25.99;49.00;101673.94;5014713;28;20506;-60
2021/08/13 01:33:20;;;;;;;10.90;5.05;;;;;;;25.96;49.41;101677.13;5014828;28;20025;-61
2021/08/13 01:35:47;;;;;;;9.85;5.00;;;;;;;25.93;49.39;101683.06;5014548;28;20058;-61
2021/08/13 01:38:18;;;;;;;8.35;5.38;;;;;;;25.90;49.02;101671.63;5014562;28;20025;-60
2021/08/13 01:40:47;;;;;;;10.70;6.05;;;;;;;25.89;49.59;101676.28;5014774;28;20537;-61
2021/08/13 01:43:22;;;;;;;8.70;5.18;;;;;;;25.87;49.55;101667.41;4998085;28;20030;-61
2021/08/13 01:45:48;;;;;;;8.80;5.13;;;;;;;25.85;49.31;101680.47;5014498;28;20036;-61
2021/08/13 01:48:14;;;;;;;8.48;6.38;;;;;;;25.83;49.77;101682.59;5014303;28;20382;-61
2021/08/13 01:50:41;;;;;;;9.80;5.75;;;;;;;25.79;49.21;101675.84;5014557;28;20057;-60
2021/08/13 01:53:07;;;;;;;6.13;4.43;;;;;;;25.79;49.94;101681.34;5014298;28;20050;-61
2021/08/13 01:55:33;;;;;;;10.77;4.72;;;;;;;25.78;49.67;101685.13;5014786;28;20105;-61
2021/08/13 01:57:59;;;;;;;8.32;5.18;;;;;;;25.71;49.64;101676.00;5014496;28;20029;-61
2021/08/13 02:00:25;;;;;;;8.80;5.00;;;;;;;25.75;49.75;101682.78;5015317;28;20029;-60
2021/08/13 02:02:51;;;;;;;10.07;5.60;;;;;;;25.74;50.01;101689.31;5014621;28;20021;-62
2021/08/13 02:05:18;;;;;;;10.88;5.78;;;;;;;25.73;49.65;101693.16;5015261;28;20021;-61
2021/08/13 02:07:44;;;;;;;13.50;5.80;;;;;;;25.69;49.65;101686.38;5014871;28;20521;-61
2021/08/13 02:10:11;;;;;;;9.80;5.75;;;;;;;25.72;49.88;101674.97;5014306;28;20029;-61
2021/08/13 02:12:36;;;;;;;9.30;6.10;;;;;;;25.72;49.49;101679.59;5013883;28;20029;-61
2021/08/13 02:15:04;;;;;;;11.43;6.05;;;;;;;25.71;49.94;101678.75;5014163;28;20437;-61
2021/08/13 02:17:32;;;;;;;11.02;5.32;;;;;;;25.72;50.15;101680.47;5014266;28;20029;-61
2021/08/13 02:20:02;;;;;;;7.82;4.70;;;;;;;25.71;50.05;101669.69;5014123;28;20029;-61
2021/08/13 02:22:28;;;;;;;9.40;5.18;;;;;;;25.67;50.08;101672.00;5014306;28;20053;-61
2021/08/13 02:24:53;;;;;;;9.93;6.63;;;;;;;25.67;49.91;101677.50;5014238;28;20113;-61
2021/08/13 02:27:18;;;;;;;9.60;5.85;;;;;;;25.67;49.94;101677.50;5014258;28;20058;-60
2021/08/13 02:29:44;;;;;;;9.25;5.68;;;;;;;25.67;50.17;101672.00;5014772;28;20022;-61
2021/08/13 02:32:10;;;;;;;11.85;6.07;;;;;;;25.68;50.33;101673.72;5015056;28;20083;-61
2021/08/13 02:34:36;;;;;;;11.73;6.30;;;;;;;25.67;50.22;101666.53;5014942;28;20378;-61
2021/08/13 02:37:09;;;;;;;9.73;5.93;;;;;;;25.67;50.25;101668.41;5015191;28;20040;-61
2021/08/13 02:39:54;;;;;;;11.57;6.07;;;;;;;25.65;49.92;101660.41;5015147;28;20117;-61
2021/08/13 02:42:33;;;;;;;13.20;6.25;;;;;;;25.62;50.06;101652.56;5014902;28;20026;-61
2021/08/13 02:45:00;;;;;;;11.13;5.97;;;;;;;25.61;50.17;101655.50;5013872;28;20025;-61
2021/08/13 02:47:28;;;;;;;12.88;5.70;;;;;;;25.60;49.97;101664.81;5013954;28;20176;-61
2021/08/13 02:49:57;;;;;;;11.98;6.78;;;;;;;25.55;50.07;101661.81;4996898;28;20113;-61
2021/08/13 02:52:27;;;;;;;10.80;6.90;;;;;;;25.61;50.18;101658.25;5013479;28;20036;-61
2021/08/13 02:54:54;;;;;;;11.32;6.53;;;;;;;25.56;50.13;101647.91;5013440;28;20175;-61
2021/08/13 02:57:22;;;;;;;12.48;7.28;;;;;;;25.62;49.74;101663.56;5013433;28;20025;-61
2021/08/13 02:59:48;;;;;;;13.13;7.45;;;;;;;25.64;50.41;101653.22;5014525;28;20021;-61
2021/08/13 03:02:14;;;;;;;10.75;6.95;;;;;;;25.64;50.53;101655.09;5013359;28;20049;-61
2021/08/13 03:04:39;;;;;;;16.67;7.78;;;;;;;25.64;50.62;101660.59;5013303;28;20034;-61
2021/08/13 03:07:05;;;;;;;15.68;7.63;;;;;;;25.60;50.59;101643.69;5013210;28;20351;-60
2021/08/13 03:09:31;;;;;;;13.60;8.13;;;;;;;25.63;50.52;101648.75;5014134;28;20056;-60
2021/08/13 03:11:57;;;;;;;11.88;7.45;;;;;;;25.61;50.55;101659.09;5013672;28;20030;-61
2021/08/13 03:14:23;;;;;;;12.90;7.75;;;;;;;25.56;50.58;101652.56;5014320;28;20030;-61
2021/08/13 03:16:49;;;;;;;12.20;6.55;;;;;;;25.51;50.56;101642.22;5013310;28;20089;-61
2021/08/13 03:19:14;;;;;;;13.63;7.78;;;;;;;25.48;50.26;101634.38;5012755;28;20056;-61
2021/08/13 03:21:42;;;;;;;18.10;11.77;;;;;;;25.46;50.32;101636.47;5013282;28;20026;-61
2021/08/13 03:24:07;;;;;;;12.77;8.00;;;;;;;25.44;50.20;101636.66;5014427;28;20026;-61
2021/08/13 03:26:33;;;;;;;14.48;9.82;;;;;;;25.41;50.37;101644.44;5013940;28;20402;-61
2021/08/13 03:28:58;;;;;;;12.25;8.45;;;;;;;25.36;50.43;101646.97;5012326;28;20058;-61
2021/08/13 03:31:35;;;;;;;13.02;7.47;;;;;;;25.34;50.63;101649.06;5014104;28;20030;-61
2021/08/13 03:34:01;;;;;;;16.48;7.93;;;;;;;25.31;50.16;101654.97;5013699;28;20029;-60
2021/08/13 03:36:27;;;;;;;11.68;6.85;;;;;;;25.28;50.56;101655.38;5012785;28;20030;-61
2021/08/13 03:38:53;;;;;;;12.38;8.13;;;;;;;25.28;50.44;101658.97;5011637;28;20049;-61
2021/08/13 03:41:18;;;;;;;10.52;7.30;;;;;;;25.27;50.80;101664.66;5013953;28;20064;-61
2021/08/13 03:43:44;;;;;;;13.15;8.43;;;;;;;25.26;50.37;101663.84;5012457;28;20059;-61
2021/08/13 03:46:09;;;;;;;14.05;7.93;;;;;;;25.26;51.04;101669.31;5014102;28;20073;-61
2021/08/13 03:48:34;;;;;;;16.20;7.90;;;;;;;25.29;50.55;101670.81;5013858;28;20057;-61
2021/08/13 03:51:00;;;;;;;16.73;9.15;;;;;;;25.27;50.29;101665.50;5013853;28;20022;-61
2021/08/13 03:53:25;;;;;;;16.40;8.98;;;;;;;25.30;50.89;101661.50;5012341;28;20026;-61
2021/08/13 03:55:50;;;;;;;14.50;8.77;;;;;;;25.28;51.04;101658.13;5014129;28;20021;-61
2021/08/13 03:58:16;;;;;;;16.02;9.95;;;;;;;25.34;50.56;101669.13;5013566;28;20374;-61
2021/08/13 04:00:41;;;;;;;15.77;9.93;;;;;;;25.36;50.42;101668.91;5014128;28;20533;-61
2021/08/13 04:03:06;;;;;;;18.88;9.32;;;;;;;25.37;51.10;101673.38;5013494;28;20036;-61
2021/08/13 04:05:32;;;;;;;17.23;9.05;;;;;;;25.35;50.62;101672.69;5013671;28;20026;-61
2021/08/13 04:07:57;;;;;;;14.60;8.32;;;;;;;25.35;50.74;101673.56;5012191;28;20026;-61
2021/08/13 04:10:23;;;;;;;12.35;8.23;;;;;;;25.35;50.90;101676.28;5013334;28;20052;-61
2021/08/13 04:12:48;;;;;;;16.33;9.98;;;;;;;25.34;50.27;101671.88;5013337;28;20117;-61
2021/08/13 04:15:13;;;;;;;15.45;9.25;;;;;;;25.35;50.77;101673.56;5013501;28;20039;-61
2021/08/13 04:17:39;;;;;;;15.20;9.32;;;;;;;25.35;50.98;101679.03;5014198;28;20041;-61
2021/08/13 04:20:05;;;;;;;16.65;9.85;;;;;;;25.37;50.88;101681.59;5013508;28;20049;-61
2021/08/13 04:22:30;;;;;;;19.27;9.48;;;;;;;25.37;51.09;101674.22;5013240;28;20044;-61
2021/08/13 04:24:55;;;;;;;15.40;8.55;;;;;;;25.34;50.86;101676.50;5013583;28;20469;-61
2021/08/13 04:27:21;;;;;;;18.27;8.80;;;;;;;25.35;50.96;101683.66;5012990;28;20410;-61
2021/08/13 04:29:46;;;;;;;15.70;9.18;;;;;;;25.31;50.07;101686.00;5013510;28;20374;-61
2021/08/13 04:32:11;;;;;;;19.52;9.07;;;;;;;25.29;51.08;101681.78;5013210;28;20474;-61
2021/08/13 04:34:37;;;;;;;12.43;8.85;;;;;;;25.32;50.84;101690.41;5013518;28;20033;-61
2021/08/13 04:37:02;;;;;;;13.00;8.15;;;;;;;25.34;51.08;101692.97;5013518;28;20049;-62
2021/08/13 04:39:28;;;;;;;16.58;10.82;;;;;;;25.28;51.13;101685.56;5013509;28;20026;-61
2021/08/13 04:41:53;;;;;;;18.95;9.38;;;;;;;25.38;50.68;101694.25;5011859;28;20112;-61
2021/08/13 04:44:18;;;;;;;14.48;8.27;;;;;;;25.41;51.10;101694.69;5013462;28;20080;-61
2021/08/13 04:46:44;;;;;;;13.20;8.43;;;;;;;25.45;50.12;101700.63;5013341;28;20030;-61
2021/08/13 04:49:09;;;;;;;19.63;9.32;;;;;;;25.46;50.91;101696.84;5011861;28;20025;-61
2021/08/13 04:51:34;;;;;;;13.35;8.40;;;;;;;25.51;50.43;101705.31;5016076;28;20053;-61
2021/08/13 04:54:00;;;;;;;17.38;9.40;;;;;;;25.53;50.79;101703.22;5016666;28;20092;-61
2021/08/13 04:56:25;;;;;;;14.35;8.88;;;;;;;25.58;50.92;101711.66;5016542;28;20459;-61
2021/08/13 04:58:52;;;;;;;15.25;8.93;;;;;;;25.61;50.82;101713.16;5015241;28;20025;-61
2021/08/13 05:01:17;;;;;;;17.85;9.57;;;;;;;25.63;50.58;101714.63;5016823;28;20386;-61
2021/08/13 05:03:43;;;;;;;16.55;9.98;;;;;;;25.65;50.55;101718.03;5016444;28;20116;-60
2021/08/13 05:06:08;;;;;;;19.92;9.50;;;;;;;25.67;50.47;101710.44;5016564;28;20026;-61
2021/08/13 05:08:33;;;;;;;15.70;9.55;;;;;;;25.69;50.76;101718.44;5016791;28;20410;-61
2021/08/13 05:10:59;;;;;;;13.00;8.68;;;;;;;25.72;50.46;101724.38;5016341;28;20045;-61
2021/08/13 05:13:24;;;;;;;15.70;9.13;;;;;;;25.74;50.84;101730.50;5016563;28;20080;-61
2021/08/13 05:15:49;;;;;;;17.00;9.15;;;;;;;25.77;50.86;101732.84;5016471;28;20022;-61
2021/08/13 05:18:15;;;;;;;16.05;9.68;;;;;;;25.81;50.78;101750.59;5015124;28;20104;-61
2021/08/13 05:20:40;;;;;;;16.80;9.65;;;;;;;25.84;50.75;101750.19;5016384;28;20021;-61
2021/08/13 05:23:06;;;;;;;17.42;10.73;;;;;;;25.87;50.67;101749.78;5016565;28;20041;-61
2021/08/13 05:25:31;;;;;;;20.25;10.55;;;;;;;25.91;50.24;101742.81;5016289;28;20105;-61
2021/08/13 05:27:56;;;;;;;17.70;10.68;;;;;;;25.99;50.71;101753.59;5015031;28;20100;-61
2021/08/13 05:30:22;;;;;;;21.30;12.27;;;;;;;26.06;50.27;101753.63;5016465;28;20030;-61
2021/08/13 05:32:49;;;;;;;23.08;11.73;;;;;;;26.20;50.01;101765.50;5016096;28;20080;-61
2021/08/13 05:35:15;;;;;;;20.95;11.95;;;;;;;26.32;50.19;101761.09;5014821;28;20065;-61
2021/08/13 05:37:40;;;;;;;21.70;12.43;;;;;;;26.46;50.14;101760.91;5014506;28;20110;-61
2021/08/13 05:40:06;;;;;;;23.02;12.73;;;;;;;26.59;50.14;101765.56;5014834;28;20076;-61
2021/08/13 05:42:32;;;;;;;25.25;12.68;;;;;;;26.69;49.83;101762.38;5015739;28;20072;-61
2021/08/13 05:44:57;;;;;;;32.70;13.40;;;;;;;26.75;49.63;101775.25;5015708;28;20029;-61
2021/08/13 05:47:23;;;;;;;24.13;12.98;;;;;;;26.82;49.63;101777.00;5015776;28;20033;-61
2021/08/13 05:49:48;;;;;;;21.15;11.95;;;;;;;26.93;49.88;101787.38;5015833;28;20374;-61
2021/08/13 05:52:13;;;;;;;23.33;12.25;;;;;;;26.97;49.40;101783.09;5014638;28;20029;-61
2021/08/13 05:54:39;;;;;;;31.45;12.30;;;;;;;27.04;49.87;101781.22;5015775;28;20165;-61
2021/08/13 05:57:04;;;;;;;18.50;11.07;;;;;;;27.09;49.53;101778.66;5015463;28;20033;-61
2021/08/13 05:59:30;;;;;;;20.20;11.15;;;;;;;27.17;49.06;101783.06;5015595;28;20018;-61
2021/08/13 06:01:55;;;;;;;24.67;11.02;;;;;;;27.24;49.10;101792.19;5014764;28;20103;-61
2021/08/13 06:04:20;;;;;;;18.90;10.70;;;;;;;27.31;49.52;101793.00;5015543;28;20026;-61
2021/08/13 06:06:46;;;;;;;21.77;11.13;;;;;;;27.40;49.35;101796.38;5013907;28;20061;-61
2021/08/13 06:09:11;;;;;;;21.15;12.32;;;;;;;27.43;48.41;101794.06;5014348;28;20518;-61
2021/08/13 06:11:37;;;;;;;21.88;10.60;;;;;;;27.47;49.15;101786.22;5014231;28;20026;-60
2021/08/13 06:14:02;;;;;;;26.40;11.15;;;;;;;27.49;48.66;101789.59;5015645;28;20045;-61
2021/08/13 06:16:28;;;;;;;18.27;11.02;;;;;;;27.56;49.04;101784.91;5015585;28;20032;-61
2021/08/13 06:18:53;;;;;;;21.38;11.00;;;;;;;27.62;48.25;101784.03;5015052;28;20054;-61
2021/08/13 06:21:18;;;;;;;16.80;9.02;;;;;;;27.60;48.21;101776.00;5015615;28;20033;-61
2021/08/13 06:23:44;;;;;;;15.68;8.75;;;;;;;27.67;48.93;101792.47;5015152;28;20100;-61
2021/08/13 06:26:09;;;;;;;14.60;7.60;;;;;;;27.68;48.74;101795.03;5015081;28;20435;-61
2021/08/13 06:28:35;;;;;;;17.23;6.93;;;;;;;27.75;48.34;101795.84;5013618;28;20045;-61
2021/08/13 06:31:01;;;;;;;16.83;8.68;;;;;;;27.84;47.52;101801.09;5015060;28;20068;-62
2021/08/13 06:33:26;;;;;;;17.63;9.18;;;;;;;27.89;48.09;101802.13;5015057;28;20088;-61
2021/08/13 06:35:51;;;;;;;15.45;9.20;;;;;;;27.98;47.62;101799.97;5014916;28;20029;-61
2021/08/13 06:38:17;;;;;;;20.88;9.88;;;;;;;28.05;47.70;101807.19;5014940;28;20102;-61
2021/08/13 06:40:42;;;;;;;18.42;10.88;;;;;;;28.13;48.08;101803.31;5015135;28;20026;-61
2021/08/13 06:43:08;;;;;;;18.95;10.82;;;;;;;28.13;47.07;101798.66;5015092;28;20034;-61
2021/08/13 06:45:33;;;;;;;19.98;9.98;;;;;;;28.14;47.61;101803.09;5014580;28;20378;-61
2021/08/13 06:47:59;;;;;;;18.88;10.05;;;;;;;28.21;46.75;101806.66;5014956;28;20054;-61
2021/08/13 06:50:24;;;;;;;17.63;10.68;;;;;;;28.35;46.98;101806.56;5014404;28;20032;-61
2021/08/13 06:52:50;;;;;;;16.95;10.18;;;;;;;28.51;46.30;101806.03;5014427;28;20132;-60
2021/08/13 06:55:18;;;;;;;14.65;8.57;;;;;;;28.67;46.19;101806.34;5014388;28;20033;-61
2021/08/13 06:57:43;;;;;;;16.40;8.88;;;;;;;28.80;46.43;101794.38;5014350;28;20018;-61
2021/08/13 07:00:10;;;;;;;14.48;8.60;;;;;;;28.99;45.98;101803.53;5014646;28;20432;-61
2021/08/13 07:02:36;;;;;;;14.02;8.15;;;;;;;29.06;46.56;101798.81;5013610;28;20364;-61
2021/08/13 07:05:02;;;;;;;15.63;8.27;;;;;;;29.12;45.67;101809.78;5013425;28;20029;-61
2021/08/13 07:07:30;;;;;;;12.50;7.15;;;;;;;29.20;46.31;101817.75;5013837;28;20026;-61
2021/08/13 07:09:56;;;;;;;12.55;7.40;;;;;;;29.25;46.43;101822.66;5015072;28;20029;-62
2021/08/13 07:12:21;;;;;;;9.63;5.93;;;;;;;29.29;45.75;101827.47;5014378;28;20100;-61
2021/08/13 07:14:46;;;;;;;8.88;5.78;;;;;;;29.38;45.37;101839.91;5014744;28;20026;-62
2021/08/13 07:17:12;;;;;;;8.98;5.13;;;;;;;29.43;45.17;101848.34;5014520;28;20079;-61
2021/08/13 07:19:37;;;;;;;9.20;5.60;;;;;;;29.49;45.70;101837.47;5014221;28;20025;-61
2021/08/13 07:22:03;;;;;;;7.95;4.40;;;;;;;29.54;45.22;101841.22;5014223;28;20108;-60
2021/08/13 07:24:28;;;;;;;8.18;5.07;;;;;;;29.64;44.34;101851.75;5014000;28;20029;-61
2021/08/13 07:26:54;;;;;;;9.00;4.70;;;;;;;29.74;44.96;101852.03;5013107;28;20022;-61
2021/08/13 07:29:21;;;;;;;6.60;4.28;;;;;;;29.85;44.43;101860.44;5013017;28;20428;-61
2021/08/13 07:31:47;;;;;;;10.32;4.55;;;;;;;30.03;43.62;101856.84;5014159;28;20022;-61
2021/08/13 07:34:12;;;;;;;7.45;4.53;;;;;;;30.03;43.80;101862.34;5012787;28;20044;-61
2021/08/13 07:36:37;;;;;;;8.63;4.88;;;;;;;29.99;44.60;101861.13;5013905;28;20029;-60
2021/08/13 07:39:03;;;;;;;8.18;3.97;;;;;;;29.97;44.38;101852.22;5013952;28;20069;-61
2021/08/13 07:41:28;;;;;;;7.10;4.13;;;;;;;30.06;43.29;101861.91;5013798;28;20467;-60
2021/08/13 07:43:53;;;;;;;8.23;4.70;;;;;;;30.09;43.58;101866.97;5013693;28;20439;-60
2021/08/13 07:46:19;;;;;;;9.63;4.03;;;;;;;30.04;43.33;101872.31;5014253;28;20080;-60
2021/08/13 07:48:44;;;;;;;9.50;3.90;;;;;;;29.97;43.37;101882.63;5013751;28;20026;-61
2021/08/13 07:51:10;;;;;;;7.82;3.35;;;;;;;29.94;43.85;101894.13;5013606;28;20056;-61
2021/08/13 07:53:35;;;;;;;8.23;3.58;;;;;;;29.88;43.66;101884.00;5018640;28;20483;-61
2021/08/13 07:56:01;;;;;;;6.10;3.17;;;;;;;29.80;43.96;101879.63;5033076;28;20025;-61
2021/08/13 07:58:26;;;;;;;5.03;2.92;;;;;;;29.82;43.63;101882.16;5033248;28;20335;-61
2021/08/13 08:00:52;;;;;;;6.30;2.97;;;;;;;29.82;43.43;101887.69;5033211;28;20155;-60
2021/08/13 08:03:18;;;;;;;5.28;2.13;;;;;;;30.01;42.29;101890.22;5022920;28;20026;-61
2021/08/13 08:05:44;;;;;;;4.50;2.00;;;;;;;30.21;42.46;101887.19;5013394;28;20032;-60
2021/08/13 08:08:09;;;;;;;2.63;1.70;;;;;;;30.35;41.99;101880.41;5013823;28;20075;-60
2021/08/13 08:10:34;;;;;;;3.55;2.20;;;;;;;30.62;41.91;101885.59;5013597;28;20026;-60
2021/08/13 08:13:00;;;;;;;4.85;1.95;;;;;;;30.75;41.64;101893.69;5013727;28;20108;-60
2021/08/13 08:15:25;;;;;;;6.85;2.72;;;;;;;30.88;41.34;101894.31;5013624;28;20030;-60
2021/08/13 08:17:50;;;;;;;4.40;3.00;;;;;;;31.23;40.90;101899.13;5013703;28;20022;-60
2021/08/13 08:20:16;;;;;;;3.22;1.98;;;;;;;31.57;40.12;101893.63;5013973;28;20026;-61
2021/08/13 08:22:41;;;;;;;3.60;2.45;;;;;;;31.85;39.81;101905.88;5013420;28;20026;-60
2021/08/13 08:25:07;;;;;;;2.90;2.10;;;;;;;32.10;40.04;101899.00;5014182;28;20083;-60
2021/08/13 08:27:33;;;;;;;4.03;1.85;;;;;;;32.35;39.83;101895.88;5016843;28;20499;-60
2021/08/13 08:29:58;;;;;;;6.25;2.30;;;;;;;32.61;39.80;101895.28;5015898;28;20109;-61
2021/08/13 08:32:24;;;;;;;4.53;1.92;;;;;;;32.91;38.80;101910.84;5017246;28;20486;-61
2021/08/13 08:34:49;;;;;;;3.17;1.80;;;;;;;33.13;38.92;101914.59;5017143;28;20047;-61
2021/08/13 08:37:14;;;;;;;4.10;1.98;;;;;;;33.37;39.04;101913.31;5016963;28;20072;-61
2021/08/13 08:39:40;;;;;;;2.85;1.88;;;;;;;33.65;38.24;101924.34;5017160;28;20033;-61
2021/08/13 08:42:15;;;;;;;4.55;1.67;;;;;;;33.79;38.14;101920.09;5017152;28;20524;-61
2021/08/13 08:44:41;;;;;;;4.65;1.75;;;;;;;34.03;37.01;101922.66;5017053;28;20178;-60
2021/08/13 08:47:08;;;;;;;2.22;1.45;;;;;;;34.26;37.87;101919.63;5016709;28;20117;-61
2021/08/13 08:49:34;;;;;;;5.68;1.73;;;;;;;34.54;37.17;101924.97;5016977;28;20055;-61
2021/08/13 08:52:00;;;;;;;2.47;1.30;;;;;;;34.79;36.31;101916.06;5016156;28;20072;-61
2021/08/13 08:54:26;;;;;;;2.97;1.38;;;;;;;35.04;36.66;101913.50;5015652;28;20410;-60
2021/08/13 08:56:52;;;;;;;5.88;1.65;;;;;;;35.12;36.42;101917.81;5015687;28;20562;-60
2021/08/13 08:59:21;;;;;;;3.65;1.35;;;;;;;34.95;36.50;101915.94;5016821;28;20061;-61
2021/08/13 09:01:46;;;;;;;2.72;1.35;;;;;;;34.81;36.13;101917.50;5016985;28;20033;-61
2021/08/13 09:04:11;;;;;;;2.30;1.35;;;;;;;34.73;36.81;101908.78;5016994;28;20056;-61
2021/08/13 09:06:41;;;;;;;2.15;1.17;;;;;;;34.57;35.81;101916.13;5016607;28;20062;-61
2021/08/13 09:09:07;;;;;;;2.10;1.25;;;;;;;34.79;35.50;101922.47;5015427;28;20034;-61
2021/08/13 09:11:34;;;;;;;1.90;1.10;;;;;;;34.80;35.76;101917.75;5014984;28;20025;-60
2021/08/13 09:14:01;;;;;;;3.28;1.02;;;;;;;34.90;35.39;101921.47;5016527;28;20053;-60
2021/08/13 09:16:26;;;;;;;7.53;1.40;;;;;;;34.91;35.08;101925.09;5016748;28;20037;-58
2021/08/13 09:19:03;;;;;;;2.67;1.92;;;;;;;35.04;34.69;101907.94;5016699;28;20033;-58
2021/08/13 09:21:29;;;;;;;4.10;1.33;;;;;;;35.15;35.23;101906.13;5016138;28;20541;-60
2021/08/13 09:23:59;;;;;;;3.25;1.40;;;;;;;35.20;35.02;101914.53;5016557;28;20401;-61
2021/08/13 09:26:24;;;;;;;2.42;1.30;;;;;;;35.14;34.82;101916.44;5016143;28;20427;-59
2021/08/13 09:28:58;;;;;;;2.85;1.40;;;;;;;34.98;35.37;101918.19;5015699;28;20085;-59
2021/08/13 09:31:29;;;;;;;4.07;1.48;;;;;;;35.20;35.51;101926.53;5016694;28;20076;-59
2021/08/13 09:34:05;;;;;;;2.05;1.33;;;;;;;35.24;34.43;101924.88;5016392;28;20022;-59
2021/08/13 09:36:32;;;;;;;5.28;1.08;;;;;;;35.68;34.37;101927.44;5014930;28;20029;-59
2021/08/13 09:39:04;;;;;;;3.72;1.48;;;;;;;35.68;34.46;101927.44;5014320;28;20030;-59
2021/08/13 09:41:30;;;;;;;1.20;1.10;;;;;;;35.84;34.15;101921.69;5016061;28;20021;-59
2021/08/13 09:44:00;;;;;;;5.85;1.02;;;;;;;36.00;34.07;101926.22;4998125;28;20026;-59
2021/08/13 09:46:30;;;;;;;1.40;1.05;;;;;;;36.18;34.20;101927.75;5015474;28;20080;-59
2021/08/13 09:49:12;;;;;;;1.92;1.08;;;;;;;36.16;33.61;101925.22;5015900;28;20022;-59
2021/08/13 09:51:38;;;;;;;1.38;0.93;;;;;;;36.29;33.69;101925.81;5015737;28;20505;-59
2021/08/13 09:54:05;;;;;;;0.80;0.77;;;;;;;36.38;33.22;101921.41;5015968;28;20025;-59
2021/08/13 09:56:35;;;;;;;1.27;0.70;;;;;;;36.29;33.66;101928.63;5015783;28;20053;-59
2021/08/13 09:59:22;;;;;;;0.88;0.65;;;;;;;36.22;33.48;101929.72;5016011;28;20056;-59
2021/08/13 10:01:49;;;;;;;2.10;1.30;;;;;;;36.72;32.77;101926.25;5015679;28;20048;-59
2021/08/13 10:04:16;;;;;;;1.60;1.23;;;;;;;37.40;32.36;101931.63;5014491;28;20417;-60
2021/08/13 10:06:43;;;;;;;1.10;0.60;;;;;;;37.44;31.63;101925.19;5015366;28;20022;-59
2021/08/13 10:09:29;;;;;;;1.08;0.80;;;;;;;38.14;31.00;101918.59;5015622;28;20076;-59
2021/08/13 10:12:05;;;;;;;1.23;0.93;;;;;;;38.67;30.06;101916.13;5015323;28;20475;-60
2021/08/13 10:14:31;;;;;;;0.82;0.63;;;;;;;38.38;31.47;101930.84;5015399;28;20022;-59
2021/08/13 10:17:06;;;;;;;2.83;1.45;;;;;;;38.11;31.53;101930.34;5015438;28;20474;-59
2021/08/13 10:19:31;;;;;;;2.03;0.90;;;;;;;38.01;31.51;101919.22;5015307;28;20030;-59
2021/08/13 10:21:57;;;;;;;1.50;0.70;;;;;;;37.97;31.85;101918.09;5014360;28;20030;-59
2021/08/13 10:24:23;;;;;;;1.02;0.70;;;;;;;38.09;30.78;101915.81;5015371;28;20459;-59
2021/08/13 10:26:48;;;;;;;1.83;1.05;;;;;;;37.91;31.52;101912.81;5015824;28;20327;-58
2021/08/13 10:29:14;;;;;;;2.33;1.08;;;;;;;38.42;31.09;101914.28;5013451;28;20124;-59
2021/08/13 10:31:40;;;;;;;1.15;0.93;;;;;;;38.44;31.21;101904.47;5013908;28;20487;-59
2021/08/13 10:34:05;;;;;;;2.88;1.10;;;;;;;38.34;31.09;101918.53;5015094;28;20044;-59
2021/08/13 10:36:31;;;;;;;1.33;1.00;;;;;;;38.39;31.11;101924.09;5014964;28;20022;-59
2021/08/13 10:38:56;;;;;;;3.78;1.58;;;;;;;38.48;30.77;101929.94;5014924;28;20022;-59
2021/08/13 10:41:24;;;;;;;2.08;1.33;;;;;;;38.31;30.71;101919.06;4997022;28;20025;-59
2021/08/13 10:43:51;;;;;;;1.50;0.95;;;;;;;38.52;30.10;101913.41;5014845;28;20038;-60
2021/08/13 10:46:18;;;;;;;1.52;1.00;;;;;;;38.73;30.44;101931.75;5013283;28;20030;-60
2021/08/13 10:48:48;;;;;;;2.15;1.35;;;;;;;38.61;31.06;101920.06;5014302;28;20105;-59
2021/08/13 10:51:24;;;;;;;3.00;1.35;;;;;;;39.30;29.46;101920.69;5013598;28;20054;-59
2021/08/13 10:54:06;;;;;;;1.15;1.05;;;;;;;39.42;29.69;101914.69;5013426;28;20026;-59
2021/08/13 10:56:38;;;;;;;2.28;1.60;;;;;;;39.05;29.70;101906.88;5014598;28;20025;-59
2021/08/13 10:59:03;;;;;;;1.92;1.10;;;;;;;39.10;30.25;101901.22;5014539;28;20092;-60
2021/08/13 11:01:28;;;;;;;1.50;1.35;;;;;;;38.89;29.73;101908.13;5014516;28;20061;-59
2021/08/13 11:03:54;;;;;;;2.22;1.40;;;;;;;38.51;30.79;101908.91;5014484;28;20033;-59
2021/08/13 11:06:42;;;;;;;5.57;1.25;;;;;;;38.08;30.72;101914.13;5012917;28;20030;-58
2021/08/13 11:09:20;;;;;;;2.75;1.30;;;;;;;37.92;30.29;101920.91;5011336;28;20042;-58
2021/08/13 11:11:49;;;;;;;2.22;1.40;;;;;;;38.66;30.20;101906.03;5013113;28;20029;-59
2021/08/13 11:14:24;;;;;;;3.03;1.67;;;;;;;38.69;29.88;101908.25;5012802;28;20029;-59
2021/08/13 11:16:51;;;;;;;1.77;1.67;;;;;;;38.36;30.19;101910.66;5014132;28;20029;-60
2021/08/13 11:19:16;;;;;;;1.40;1.30;;;;;;;39.10;29.35;101920.84;5013068;28;20022;-58